This is the latest recevied weather packets stored in our database for station/object K7DC. If no packets are shown the sender has not sent any weather packets the latest 10 day(s).
| Time | Temp. | Humidity | Pressure | Rain* | Wind** | Luminosity | Snow |
|---|---|---|---|---|---|---|---|
| 1777565123 | 23.89° C | 18% | 1012.2 hPa | 0 mm | - | 280 W/m² | - |
| 1777564209 | 22.22° C | 24% | 1012.5 hPa | 0 mm | - | 248 W/m² | - |
| 1777563302 | 21.11° C | 28% | 1012.4 hPa | 0 mm | - | 198 W/m² | - |
| 1777562999 | 20.56° C | 29% | 1012.1 hPa | 0 mm | - | 189 W/m² | - |
| 1777562394 | 20° C | 29% | 1012 hPa | 0 mm | - | 213 W/m² | - |
| 1777561179 | 18.89° C | 32% | 1012.5 hPa | 0 mm | - | 171 W/m² | - |
| 1777559967 | 17.78° C | 33% | 1012.6 hPa | 0 mm | - | 128 W/m² | - |
| 1777559667 | 17.78° C | 33% | 1012.7 hPa | 0 mm | - | 120 W/m² | - |
| 1777559365 | 17.78° C | 32% | 1012.5 hPa | 0 mm | - | 119 W/m² | - |
| 1777558756 | 17.22° C | 32% | 1012.7 hPa | 0 mm | - | 92 W/m² | - |
| 1777557238 | 16.11° C | 38% | 1012.4 hPa | 0 mm | - | 59 W/m² | - |
| 1777556021 | 15.56° C | 39% | 1012.4 hPa | 0 mm | - | 31 W/m² | - |
| 1777555109 | 15.56° C | 39% | 1012.1 hPa | 0 mm | - | 21 W/m² | - |
| 1777554807 | 15.56° C | 38% | 1011.9 hPa | 0 mm | - | 18 W/m² | - |
| 1777552986 | 16.11° C | 29% | 1012.2 hPa | 0 mm | - | 2 W/m² | - |
| 1777552079 | 16.11° C | 27% | 1012.2 hPa | 0 mm | - | 0 W/m² | - |
| 1777551474 | 15° C | 27% | 1012 hPa | 0 mm | - | 0 W/m² | - |
| 1777551170 | 15° C | 28% | 1011.7 hPa | 0 mm | - | 0 W/m² | - |
| 1777550867 | 15° C | 27% | 1011.7 hPa | 0 mm | - | 0 W/m² | - |
| 1777550259 | 15° C | 30% | 1011.8 hPa | 0 mm | - | 0 W/m² | - |
| 1777549348 | 15° C | 29% | 1011.8 hPa | 0 mm | - | 0 W/m² | - |
| 1777547832 | 16.11° C | 28% | 1012.1 hPa | 0 mm | - | 0 W/m² | - |
| 1777547528 | 16.67° C | 28% | 1012.1 hPa | 0 mm | - | 0 W/m² | - |
| 1777546316 | 16.67° C | 29% | 1012.5 hPa | 0 mm | - | 0 W/m² | - |
| 1777546014 | 16.67° C | 29% | 1012.4 hPa | 0 mm | - | 0 W/m² | - |
* Rain latest hour (hover to see other rain measurements)
** Current wind speed in m/s (hover to see current wind gust speed)